sensor_id;sensor_type;location;lat;lon;timestamp;pressure;altitude;pressure_sealevel;temperature
42119;BMP280;27783;42.782;23.274;2023-06-14T00:00:37;95236.28;;;17.34
42119;BMP280;27783;42.782;23.274;2023-06-14T00:03:07;95224.25;;;17.30
42119;BMP280;27783;42.782;23.274;2023-06-14T00:05:38;95234.94;;;17.18
42119;BMP280;27783;42.782;23.274;2023-06-14T00:08:09;95229.84;;;17.11
42119;BMP280;27783;42.782;23.274;2023-06-14T00:10:39;95236.63;;;17.24
42119;BMP280;27783;42.782;23.274;2023-06-14T00:13:09;95239.06;;;17.18
42119;BMP280;27783;42.782;23.274;2023-06-14T00:15:37;95234.56;;;17.40
42119;BMP280;27783;42.782;23.274;2023-06-14T00:18:23;95236.19;;;17.37
42119;BMP280;27783;42.782;23.274;2023-06-14T00:20:51;95240.97;;;17.30
42119;BMP280;27783;42.782;23.274;2023-06-14T00:23:18;95228.19;;;17.25
42119;BMP280;27783;42.782;23.274;2023-06-14T00:25:44;95229.63;;;17.18
42119;BMP280;27783;42.782;23.274;2023-06-14T00:28:12;95216.19;;;17.21
42119;BMP280;27783;42.782;23.274;2023-06-14T00:30:38;95223.25;;;17.15
42119;BMP280;27783;42.782;23.274;2023-06-14T00:33:03;95220.34;;;17.10
42119;BMP280;27783;42.782;23.274;2023-06-14T00:35:29;95219.19;;;17.11
42119;BMP280;27783;42.782;23.274;2023-06-14T00:37:55;95215.75;;;17.22
42119;BMP280;27783;42.782;23.274;2023-06-14T00:40:22;95215.34;;;17.12
42119;BMP280;27783;42.782;23.274;2023-06-14T00:42:49;95209.34;;;17.20
42119;BMP280;27783;42.782;23.274;2023-06-14T00:45:14;95205.94;;;17.19
42119;BMP280;27783;42.782;23.274;2023-06-14T00:47:43;95210.97;;;17.18
42119;BMP280;27783;42.782;23.274;2023-06-14T00:50:09;95206.41;;;17.18
42119;BMP280;27783;42.782;23.274;2023-06-14T00:52:35;95212.44;;;17.18
42119;BMP280;27783;42.782;23.274;2023-06-14T00:55:01;95209.03;;;17.30
42119;BMP280;27783;42.782;23.274;2023-06-14T00:57:27;95213.81;;;17.23
42119;BMP280;27783;42.782;23.274;2023-06-14T00:59:56;95211.38;;;17.28
42119;BMP280;27783;42.782;23.274;2023-06-14T01:02:22;95210.97;;;17.18
42119;BMP280;27783;42.782;23.274;2023-06-14T01:04:51;95212.53;;;17.27
42119;BMP280;27783;42.782;23.274;2023-06-14T01:07:41;95206.53;;;17.35
42119;BMP280;27783;42.782;23.274;2023-06-14T01:13:21;95200.44;;;17.14
42119;BMP280;27783;42.782;23.274;2023-06-14T01:16:04;95197.22;;;17.19
42119;BMP280;27783;42.782;23.274;2023-06-14T01:18:30;95202.50;;;16.98
42119;BMP280;27783;42.782;23.274;2023-06-14T01:20:57;95203.41;;;17.16
42119;BMP280;27783;42.782;23.274;2023-06-14T01:23:24;95207.91;;;17.07
42119;BMP280;27783;42.782;23.274;2023-06-14T01:25:52;95203.97;;;16.99
42119;BMP280;27783;42.782;23.274;2023-06-14T01:28:19;95205.03;;;17.02
42119;BMP280;27783;42.782;23.274;2023-06-14T01:30:48;95203.63;;;17.09
42119;BMP280;27783;42.782;23.274;2023-06-14T01:33:23;95196.94;;;17.05
42119;BMP280;27783;42.782;23.274;2023-06-14T01:35:51;95204.19;;;16.92
42119;BMP280;27783;42.782;23.274;2023-06-14T01:38:17;95203.09;;;17.14
42119;BMP280;27783;42.782;23.274;2023-06-14T01:40:44;95199.91;;;17.07
42119;BMP280;27783;42.782;23.274;2023-06-14T01:43:13;95210.88;;;17.09
42119;BMP280;27783;42.782;23.274;2023-06-14T01:45:40;95210.63;;;17.16
42119;BMP280;27783;42.782;23.274;2023-06-14T01:48:19;95209.91;;;17.03
42119;BMP280;27783;42.782;23.274;2023-06-14T01:50:48;95205.88;;;17.11
42119;BMP280;27783;42.782;23.274;2023-06-14T01:53:14;95207.28;;;16.91
42119;BMP280;27783;42.782;23.274;2023-06-14T01:55:48;95216.13;;;16.88
42119;BMP280;27783;42.782;23.274;2023-06-14T01:58:14;95216.72;;;16.80
42119;BMP280;27783;42.782;23.274;2023-06-14T02:00:43;95218.00;;;16.87
42119;BMP280;27783;42.782;23.274;2023-06-14T02:03:11;95217.81;;;16.82
42119;BMP280;27783;42.782;23.274;2023-06-14T02:05:37;95221.53;;;16.72
42119;BMP280;27783;42.782;23.274;2023-06-14T02:08:05;95227.28;;;16.83
42119;BMP280;27783;42.782;23.274;2023-06-14T02:10:31;95225.91;;;16.79
42119;BMP280;27783;42.782;23.274;2023-06-14T02:12:56;95232.59;;;16.83
42119;BMP280;27783;42.782;23.274;2023-06-14T02:15:22;95235.06;;;16.78
42119;BMP280;27783;42.782;23.274;2023-06-14T02:17:51;95233.25;;;16.75
42119;BMP280;27783;42.782;23.274;2023-06-14T02:20:19;95236.31;;;16.73
42119;BMP280;27783;42.782;23.274;2023-06-14T02:22:45;95231.88;;;16.58
42119;BMP280;27783;42.782;23.274;2023-06-14T02:25:11;95238.44;;;16.66
42119;BMP280;27783;42.782;23.274;2023-06-14T02:27:37;95246.66;;;16.71
42119;BMP280;27783;42.782;23.274;2023-06-14T02:30:02;95239.63;;;16.65
42119;BMP280;27783;42.782;23.274;2023-06-14T02:32:29;95242.31;;;16.65
42119;BMP280;27783;42.782;23.274;2023-06-14T02:34:56;95239.75;;;16.74
42119;BMP280;27783;42.782;23.274;2023-06-14T02:37:23;95239.66;;;16.89
42119;BMP280;27783;42.782;23.274;2023-06-14T02:39:50;95237.84;;;16.62
42119;BMP280;27783;42.782;23.274;2023-06-14T02:42:15;95237.94;;;16.71
42119;BMP280;27783;42.782;23.274;2023-06-14T02:44:41;95233.47;;;16.68
42119;BMP280;27783;42.782;23.274;2023-06-14T02:47:13;95234.09;;;16.72
42119;BMP280;27783;42.782;23.274;2023-06-14T02:49:39;95227.69;;;16.69
42119;BMP280;27783;42.782;23.274;2023-06-14T02:52:05;95225.16;;;16.66
42119;BMP280;27783;42.782;23.274;2023-06-14T02:54:32;95232.91;;;16.73
42119;BMP280;27783;42.782;23.274;2023-06-14T02:57:00;95231.56;;;16.68
42119;BMP280;27783;42.782;23.274;2023-06-14T02:59:26;95235.06;;;16.66
42119;BMP280;27783;42.782;23.274;2023-06-14T03:01:52;95239.31;;;16.63
42119;BMP280;27783;42.782;23.274;2023-06-14T03:04:17;95244.09;;;16.68
42119;BMP280;27783;42.782;23.274;2023-06-14T03:06:44;95241.44;;;16.68
42119;BMP280;27783;42.782;23.274;2023-06-14T03:09:10;95249.75;;;16.58
42119;BMP280;27783;42.782;23.274;2023-06-14T03:11:36;95250.19;;;16.68
42119;BMP280;27783;42.782;23.274;2023-06-14T03:14:05;95255.91;;;16.67
42119;BMP280;27783;42.782;23.274;2023-06-14T03:16:33;95254.22;;;16.73
42119;BMP280;27783;42.782;23.274;2023-06-14T03:19:03;95266.25;;;16.65
42119;BMP280;27783;42.782;23.274;2023-06-14T03:21:29;95265.72;;;16.70
42119;BMP280;27783;42.782;23.274;2023-06-14T03:23:55;95262.84;;;16.65
42119;BMP280;27783;42.782;23.274;2023-06-14T03:26:38;95261.34;;;16.76
42119;BMP280;27783;42.782;23.274;2023-06-14T03:29:10;95260.19;;;16.77
42119;BMP280;27783;42.782;23.274;2023-06-14T03:31:35;95255.41;;;16.84
42119;BMP280;27783;42.782;23.274;2023-06-14T03:34:02;95258.69;;;16.76
42119;BMP280;27783;42.782;23.274;2023-06-14T03:36:27;95259.88;;;16.99
42119;BMP280;27783;42.782;23.274;2023-06-14T03:38:53;95261.38;;;16.88
42119;BMP280;27783;42.782;23.274;2023-06-14T03:41:21;95266.28;;;16.89
42119;BMP280;27783;42.782;23.274;2023-06-14T03:43:46;95260.09;;;17.04
42119;BMP280;27783;42.782;23.274;2023-06-14T03:46:13;95263.19;;;17.03
42119;BMP280;27783;42.782;23.274;2023-06-14T03:48:38;95263.94;;;17.03
42119;BMP280;27783;42.782;23.274;2023-06-14T03:51:04;95261.81;;;17.11
42119;BMP280;27783;42.782;23.274;2023-06-14T03:53:31;95258.16;;;17.17
42119;BMP280;27783;42.782;23.274;2023-06-14T03:55:57;95262.31;;;17.30
42119;BMP280;27783;42.782;23.274;2023-06-14T03:58:25;95265.72;;;17.31
42119;BMP280;27783;42.782;23.274;2023-06-14T04:00:54;95265.50;;;17.25
42119;BMP280;27783;42.782;23.274;2023-06-14T04:03:21;95260.91;;;17.26
42119;BMP280;27783;42.782;23.274;2023-06-14T04:05:54;95268.16;;;17.25
42119;BMP280;27783;42.782;23.274;2023-06-14T04:08:22;95263.34;;;17.45
42119;BMP280;27783;42.782;23.274;2023-06-14T04:10:49;95261.16;;;17.64
42119;BMP280;27783;42.782;23.274;2023-06-14T04:13:14;95261.72;;;17.92
42119;BMP280;27783;42.782;23.274;2023-06-14T04:15:42;95266.97;;;18.04
42119;BMP280;27783;42.782;23.274;2023-06-14T04:18:09;95264.75;;;18.03
42119;BMP280;27783;42.782;23.274;2023-06-14T04:20:35;95274.00;;;17.90
42119;BMP280;27783;42.782;23.274;2023-06-14T04:23:13;95275.16;;;17.89
42119;BMP280;27783;42.782;23.274;2023-06-14T04:25:40;95271.25;;;18.02
42119;BMP280;27783;42.782;23.274;2023-06-14T04:28:17;95268.72;;;17.99
42119;BMP280;27783;42.782;23.274;2023-06-14T04:30:44;95271.88;;;17.73
42119;BMP280;27783;42.782;23.274;2023-06-14T04:33:13;95266.28;;;17.92
42119;BMP280;27783;42.782;23.274;2023-06-14T04:35:40;95275.59;;;18.08
42119;BMP280;27783;42.782;23.274;2023-06-14T04:38:06;95268.41;;;17.97
42119;BMP280;27783;42.782;23.274;2023-06-14T04:40:34;95265.75;;;18.18
42119;BMP280;27783;42.782;23.274;2023-06-14T04:43:01;95267.94;;;18.10
42119;BMP280;27783;42.782;23.274;2023-06-14T04:45:30;95264.28;;;18.17
42119;BMP280;27783;42.782;23.274;2023-06-14T04:47:58;95263.31;;;18.11
42119;BMP280;27783;42.782;23.274;2023-06-14T04:50:24;95275.44;;;18.03
42119;BMP280;27783;42.782;23.274;2023-06-14T04:52:50;95278.47;;;17.93
42119;BMP280;27783;42.782;23.274;2023-06-14T04:55:16;95277.75;;;18.01
42119;BMP280;27783;42.782;23.274;2023-06-14T04:57:44;95283.34;;;17.94
42119;BMP280;27783;42.782;23.274;2023-06-14T05:00:10;95277.75;;;18.01
42119;BMP280;27783;42.782;23.274;2023-06-14T05:02:36;95281.19;;;18.22
42119;BMP280;27783;42.782;23.274;2023-06-14T05:05:03;95285.41;;;18.32
42119;BMP280;27783;42.782;23.274;2023-06-14T05:07:32;95295.47;;;18.28
42119;BMP280;27783;42.782;23.274;2023-06-14T05:09:59;95299.69;;;18.38
42119;BMP280;27783;42.782;23.274;2023-06-14T05:12:24;95295.78;;;18.09
42119;BMP280;27783;42.782;23.274;2023-06-14T05:14:49;95296.22;;;18.29
42119;BMP280;27783;42.782;23.274;2023-06-14T05:17:15;95303.34;;;18.32
42119;BMP280;27783;42.782;23.274;2023-06-14T05:19:42;95302.41;;;18.26
42119;BMP280;27783;42.782;23.274;2023-06-14T05:22:07;95307.31;;;18.27
42119;BMP280;27783;42.782;23.274;2023-06-14T05:24:33;95309.56;;;18.50
42119;BMP280;27783;42.782;23.274;2023-06-14T05:26:58;95312.28;;;18.58
42119;BMP280;27783;42.782;23.274;2023-06-14T05:29:24;95317.75;;;18.34
42119;BMP280;27783;42.782;23.274;2023-06-14T05:31:49;95322.91;;;18.50
42119;BMP280;27783;42.782;23.274;2023-06-14T05:34:15;95323.03;;;18.46
42119;BMP280;27783;42.782;23.274;2023-06-14T05:36:40;95327.66;;;18.54
42119;BMP280;27783;42.782;23.274;2023-06-14T05:39:05;95328.72;;;18.57
42119;BMP280;27783;42.782;23.274;2023-06-14T05:41:32;95321.31;;;18.73
42119;BMP280;27783;42.782;23.274;2023-06-14T05:43:57;95326.50;;;18.55
42119;BMP280;27783;42.782;23.274;2023-06-14T05:46:23;95324.03;;;18.90
42119;BMP280;27783;42.782;23.274;2023-06-14T05:48:54;95313.59;;;19.04
42119;BMP280;27783;42.782;23.274;2023-06-14T05:51:20;95326.53;;;19.15
42119;BMP280;27783;42.782;23.274;2023-06-14T05:53:49;95317.50;;;19.21
42119;BMP280;27783;42.782;23.274;2023-06-14T05:56:17;95318.16;;;19.34
42119;BMP280;27783;42.782;23.274;2023-06-14T05:58:43;95320.69;;;19.46
42119;BMP280;27783;42.782;23.274;2023-06-14T06:01:08;95320.78;;;19.63
42119;BMP280;27783;42.782;23.274;2023-06-14T06:03:34;95323.09;;;19.44
42119;BMP280;27783;42.782;23.274;2023-06-14T06:05:59;95323.78;;;19.65
42119;BMP280;27783;42.782;23.274;2023-06-14T06:08:26;95328.38;;;19.65
42119;BMP280;27783;42.782;23.274;2023-06-14T06:10:52;95327.75;;;19.52
42119;BMP280;27783;42.782;23.274;2023-06-14T06:13:17;95319.63;;;19.73
42119;BMP280;27783;42.782;23.274;2023-06-14T06:15:42;95335.53;;;19.38
42119;BMP280;27783;42.782;23.274;2023-06-14T06:18:08;95332.03;;;19.50
42119;BMP280;27783;42.782;23.274;2023-06-14T06:20:33;95331.81;;;19.65
42119;BMP280;27783;42.782;23.274;2023-06-14T06:22:59;95338.50;;;19.40
42119;BMP280;27783;42.782;23.274;2023-06-14T06:25:27;95332.09;;;19.67
42119;BMP280;27783;42.782;23.274;2023-06-14T06:27:54;95338.38;;;19.82
42119;BMP280;27783;42.782;23.274;2023-06-14T06:30:19;95336.75;;;20.10
42119;BMP280;27783;42.782;23.274;2023-06-14T06:32:45;95330.09;;;20.50
42119;BMP280;27783;42.782;23.274;2023-06-14T06:35:11;95334.09;;;20.45
42119;BMP280;27783;42.782;23.274;2023-06-14T06:37:38;95326.84;;;20.37
42119;BMP280;27783;42.782;23.274;2023-06-14T06:40:04;95333.66;;;20.55
42119;BMP280;27783;42.782;23.274;2023-06-14T06:42:31;95330.69;;;20.45
42119;BMP280;27783;42.782;23.274;2023-06-14T06:44:57;95327.09;;;20.65
42119;BMP280;27783;42.782;23.274;2023-06-14T06:47:22;95333.34;;;20.45
42119;BMP280;27783;42.782;23.274;2023-06-14T06:49:47;95336.63;;;20.66
42119;BMP280;27783;42.782;23.274;2023-06-14T06:52:13;95338.97;;;20.12
42119;BMP280;27783;42.782;23.274;2023-06-14T06:54:38;95328.16;;;20.33
42119;BMP280;27783;42.782;23.274;2023-06-14T06:57:04;95333.16;;;20.74
42119;BMP280;27783;42.782;23.274;2023-06-14T06:59:31;95341.50;;;20.15
42119;BMP280;27783;42.782;23.274;2023-06-14T07:01:56;95340.63;;;20.79
42119;BMP280;27783;42.782;23.274;2023-06-14T07:04:22;95330.34;;;21.27
42119;BMP280;27783;42.782;23.274;2023-06-14T07:06:48;95332.44;;;21.95
42119;BMP280;27783;42.782;23.274;2023-06-14T07:09:14;95325.81;;;22.04
42119;BMP280;27783;42.782;23.274;2023-06-14T07:11:42;95329.97;;;21.51
42119;BMP280;27783;42.782;23.274;2023-06-14T07:14:08;95321.13;;;21.37
42119;BMP280;27783;42.782;23.274;2023-06-14T07:16:33;95318.59;;;22.47
42119;BMP280;27783;42.782;23.274;2023-06-14T07:18:59;95321.75;;;22.09
42119;BMP280;27783;42.782;23.274;2023-06-14T07:21:26;95318.13;;;22.49
42119;BMP280;27783;42.782;23.274;2023-06-14T07:23:53;95318.91;;;22.91
42119;BMP280;27783;42.782;23.274;2023-06-14T07:26:18;95326.44;;;22.88
42119;BMP280;27783;42.782;23.274;2023-06-14T07:28:44;95315.31;;;23.22
42119;BMP280;27783;42.782;23.274;2023-06-14T07:31:13;95314.69;;;24.14
42119;BMP280;27783;42.782;23.274;2023-06-14T07:33:40;95318.22;;;23.67
42119;BMP280;27783;42.782;23.274;2023-06-14T07:36:06;95320.97;;;22.45
42119;BMP280;27783;42.782;23.274;2023-06-14T07:38:31;95324.75;;;22.62
42119;BMP280;27783;42.782;23.274;2023-06-14T07:40:57;95317.81;;;23.73
42119;BMP280;27783;42.782;23.274;2023-06-14T07:43:22;95319.69;;;23.20
42119;BMP280;27783;42.782;23.274;2023-06-14T07:45:47;95325.31;;;22.80
42119;BMP280;27783;42.782;23.274;2023-06-14T07:48:13;95316.72;;;23.99
42119;BMP280;27783;42.782;23.274;2023-06-14T07:50:38;95312.69;;;24.28
42119;BMP280;27783;42.782;23.274;2023-06-14T07:53:04;95321.97;;;24.27
42119;BMP280;27783;42.782;23.274;2023-06-14T07:55:29;95326.91;;;22.86
42119;BMP280;27783;42.782;23.274;2023-06-14T07:57:55;95327.84;;;22.97
42119;BMP280;27783;42.782;23.274;2023-06-14T08:00:21;95337.56;;;22.81
42119;BMP280;27783;42.782;23.274;2023-06-14T08:02:46;95336.00;;;23.17
42119;BMP280;27783;42.782;23.274;2023-06-14T08:05:12;95332.84;;;22.90
42119;BMP280;27783;42.782;23.274;2023-06-14T08:07:38;95340.16;;;23.46
42119;BMP280;27783;42.782;23.274;2023-06-14T08:10:07;95339.56;;;23.56
42119;BMP280;27783;42.782;23.274;2023-06-14T08:12:33;95336.84;;;24.04
42119;BMP280;27783;42.782;23.274;2023-06-14T08:14:59;95353.91;;;23.20
42119;BMP280;27783;42.782;23.274;2023-06-14T08:17:24;95349.59;;;24.03
42119;BMP280;27783;42.782;23.274;2023-06-14T08:19:50;95349.91;;;24.10
42119;BMP280;27783;42.782;23.274;2023-06-14T08:22:16;95353.75;;;24.04
42119;BMP280;27783;42.782;23.274;2023-06-14T08:24:43;95351.59;;;23.27
42119;BMP280;27783;42.782;23.274;2023-06-14T08:27:09;95336.53;;;25.04
42119;BMP280;27783;42.782;23.274;2023-06-14T08:29:35;95339.06;;;25.13
42119;BMP280;27783;42.782;23.274;2023-06-14T08:32:01;95344.22;;;25.11
42119;BMP280;27783;42.782;23.274;2023-06-14T08:34:27;95337.03;;;25.57
42119;BMP280;27783;42.782;23.274;2023-06-14T08:36:52;95334.88;;;26.02
42119;BMP280;27783;42.782;23.274;2023-06-14T08:39:17;95344.38;;;25.27
42119;BMP280;27783;42.782;23.274;2023-06-14T08:41:46;95329.88;;;25.55
42119;BMP280;27783;42.782;23.274;2023-06-14T08:44:15;95338.03;;;25.30
42119;BMP280;27783;42.782;23.274;2023-06-14T08:46:41;95339.34;;;24.46
42119;BMP280;27783;42.782;23.274;2023-06-14T08:49:08;95330.69;;;24.81
42119;BMP280;27783;42.782;23.274;2023-06-14T08:51:36;95315.38;;;27.39
42119;BMP280;27783;42.782;23.274;2023-06-14T08:54:04;95331.13;;;25.29
42119;BMP280;27783;42.782;23.274;2023-06-14T08:56:31;95315.28;;;28.08
42119;BMP280;27783;42.782;23.274;2023-06-14T08:59:00;95315.69;;;26.46
42119;BMP280;27783;42.782;23.274;2023-06-14T09:01:36;95324.47;;;27.09
42119;BMP280;27783;42.782;23.274;2023-06-14T09:04:01;95318.78;;;26.29
42119;BMP280;27783;42.782;23.274;2023-06-14T09:06:28;95313.63;;;27.73
42119;BMP280;27783;42.782;23.274;2023-06-14T09:08:55;95312.66;;;27.55
42119;BMP280;27783;42.782;23.274;2023-06-14T09:11:23;95311.84;;;28.08
42119;BMP280;27783;42.782;23.274;2023-06-14T09:13:49;95308.72;;;27.24
42119;BMP280;27783;42.782;23.274;2023-06-14T09:16:15;95309.69;;;27.21
42119;BMP280;27783;42.782;23.274;2023-06-14T09:18:42;95297.88;;;27.66
42119;BMP280;27783;42.782;23.274;2023-06-14T09:21:13;95292.50;;;28.88
42119;BMP280;27783;42.782;23.274;2023-06-14T09:23:39;95300.28;;;27.96
42119;BMP280;27783;42.782;23.274;2023-06-14T09:26:12;95293.09;;;28.09
42119;BMP280;27783;42.782;23.274;2023-06-14T09:28:45;95285.69;;;28.15
42119;BMP280;27783;42.782;23.274;2023-06-14T09:31:15;95291.53;;;28.91
42119;BMP280;27783;42.782;23.274;2023-06-14T09:33:44;95283.91;;;28.28
42119;BMP280;27783;42.782;23.274;2023-06-14T09:36:17;95287.25;;;28.56
42119;BMP280;27783;42.782;23.274;2023-06-14T09:39:00;95277.50;;;29.15
42119;BMP280;27783;42.782;23.274;2023-06-14T09:41:35;95289.50;;;27.70
42119;BMP280;27783;42.782;23.274;2023-06-14T09:44:02;95279.34;;;26.69
42119;BMP280;27783;42.782;23.274;2023-06-14T09:46:28;95275.25;;;27.59
42119;BMP280;27783;42.782;23.274;2023-06-14T09:48:55;95274.25;;;27.61
42119;BMP280;27783;42.782;23.274;2023-06-14T09:51:22;95275.44;;;28.48
42119;BMP280;27783;42.782;23.274;2023-06-14T09:53:49;95277.97;;;27.05
42119;BMP280;27783;42.782;23.274;2023-06-14T09:56:22;95272.28;;;27.35
42119;BMP280;27783;42.782;23.274;2023-06-14T09:58:50;95276.38;;;28.00
42119;BMP280;27783;42.782;23.274;2023-06-14T10:01:20;95262.31;;;29.88
42119;BMP280;27783;42.782;23.274;2023-06-14T10:03:45;95269.22;;;28.03
42119;BMP280;27783;42.782;23.274;2023-06-14T10:06:12;95252.78;;;29.19
42119;BMP280;27783;42.782;23.274;2023-06-14T10:08:37;95263.38;;;27.77
42119;BMP280;27783;42.782;23.274;2023-06-14T10:11:03;95251.59;;;28.41
42119;BMP280;27783;42.782;23.274;2023-06-14T10:13:32;95244.53;;;28.67
42119;BMP280;27783;42.782;23.274;2023-06-14T10:16:32;95247.16;;;28.83
42119;BMP280;27783;42.782;23.274;2023-06-14T10:21:57;95235.34;;;29.09
42119;BMP280;27783;42.782;23.274;2023-06-14T10:24:31;95232.94;;;28.66
42119;BMP280;27783;42.782;23.274;2023-06-14T10:26:59;95233.56;;;29.45
42119;BMP280;27783;42.782;23.274;2023-06-14T10:29:27;95230.47;;;28.68
42119;BMP280;27783;42.782;23.274;2023-06-14T10:31:58;95224.59;;;29.27
42119;BMP280;27783;42.782;23.274;2023-06-14T10:34:28;95211.53;;;30.37
42119;BMP280;27783;42.782;23.274;2023-06-14T10:37:11;95208.38;;;30.87
42119;BMP280;27783;42.782;23.274;2023-06-14T10:39:43;95212.59;;;31.31
42119;BMP280;27783;42.782;23.274;2023-06-14T10:42:11;95212.28;;;30.55
42119;BMP280;27783;42.782;23.274;2023-06-14T10:44:45;95203.97;;;31.70
42119;BMP280;27783;42.782;23.274;2023-06-14T10:47:20;95205.25;;;30.24
42119;BMP280;27783;42.782;23.274;2023-06-14T10:49:50;95201.47;;;31.29
42119;BMP280;27783;42.782;23.274;2023-06-14T10:52:19;95197.25;;;31.84
42119;BMP280;27783;42.782;23.274;2023-06-14T10:55:03;95197.22;;;31.33
42119;BMP280;27783;42.782;23.274;2023-06-14T10:57:38;95196.28;;;29.93
42119;BMP280;27783;42.782;23.274;2023-06-14T11:00:04;95196.03;;;30.50
42119;BMP280;27783;42.782;23.274;2023-06-14T11:02:49;95192.22;;;29.81
42119;BMP280;27783;42.782;23.274;2023-06-14T11:05:25;95187.91;;;28.87
42119;BMP280;27783;42.782;23.274;2023-06-14T11:08:38;95169.69;;;30.58
42119;BMP280;27783;42.782;23.274;2023-06-14T11:10:59;95170.25;;;30.87
42119;BMP280;27783;42.782;23.274;2023-06-14T11:13:25;95172.06;;;30.30
42119;BMP280;27783;42.782;23.274;2023-06-14T11:15:51;95172.19;;;30.20
42119;BMP280;27783;42.782;23.274;2023-06-14T11:18:19;95165.66;;;31.38
42119;BMP280;27783;42.782;23.274;2023-06-14T11:20:49;95166.56;;;29.30
42119;BMP280;27783;42.782;23.274;2023-06-14T11:23:15;95163.06;;;30.71
42119;BMP280;27783;42.782;23.274;2023-06-14T11:25:40;95174.97;;;28.98
42119;BMP280;27783;42.782;23.274;2023-06-14T11:28:06;95159.22;;;29.90
42119;BMP280;27783;42.782;23.274;2023-06-14T11:30:32;95166.59;;;28.67
42119;BMP280;27783;42.782;23.274;2023-06-14T11:32:57;95159.22;;;29.90
42119;BMP280;27783;42.782;23.274;2023-06-14T11:35:23;95168.81;;;28.63
42119;BMP280;27783;42.782;23.274;2023-06-14T11:37:54;95164.78;;;30.02
42119;BMP280;27783;42.782;23.274;2023-06-14T11:40:23;95156.66;;;29.56
42119;BMP280;27783;42.782;23.274;2023-06-14T11:42:49;95164.16;;;28.59
42119;BMP280;27783;42.782;23.274;2023-06-14T11:45:15;95153.38;;;29.86
42119;BMP280;27783;42.782;23.274;2023-06-14T11:47:47;95152.03;;;28.99
42119;BMP280;27783;42.782;23.274;2023-06-14T11:50:14;95146.09;;;29.29
42119;BMP280;27783;42.782;23.274;2023-06-14T11:52:39;95148.88;;;29.18
42119;BMP280;27783;42.782;23.274;2023-06-14T11:55:05;95140.16;;;29.02
42119;BMP280;27783;42.782;23.274;2023-06-14T11:57:35;95128.88;;;30.58
42119;BMP280;27783;42.782;23.274;2023-06-14T12:00:06;95120.03;;;31.26
42119;BMP280;27783;42.782;23.274;2023-06-14T12:02:33;95126.53;;;30.79
42119;BMP280;27783;42.782;23.274;2023-06-14T12:05:04;95127.75;;;28.83
42119;BMP280;27783;42.782;23.274;2023-06-14T12:07:30;95122.50;;;29.60
42119;BMP280;27783;42.782;23.274;2023-06-14T12:12:24;95106.56;;;29.05
42119;BMP280;27783;42.782;23.274;2023-06-14T12:14:57;95102.34;;;30.27
42119;BMP280;27783;42.782;23.274;2023-06-14T12:17:23;95108.34;;;29.26
42119;BMP280;27783;42.782;23.274;2023-06-14T12:19:49;95098.13;;;29.55
42119;BMP280;27783;42.782;23.274;2023-06-14T12:22:16;95102.44;;;30.71
42119;BMP280;27783;42.782;23.274;2023-06-14T12:24:45;95093.50;;;30.09
42119;BMP280;27783;42.782;23.274;2023-06-14T12:27:11;95094.53;;;30.55
42119;BMP280;27783;42.782;23.274;2023-06-14T12:29:41;95097.03;;;31.39
42119;BMP280;27783;42.782;23.274;2023-06-14T12:32:11;95096.84;;;30.63
42119;BMP280;27783;42.782;23.274;2023-06-14T12:34:39;95104.56;;;29.93
42119;BMP280;27783;42.782;23.274;2023-06-14T12:37:05;95080.94;;;30.55
42119;BMP280;27783;42.782;23.274;2023-06-14T12:39:31;95075.75;;;30.21
42119;BMP280;27783;42.782;23.274;2023-06-14T12:41:57;95077.97;;;30.04
42119;BMP280;27783;42.782;23.274;2023-06-14T12:44:23;95067.63;;;31.96
42119;BMP280;27783;42.782;23.274;2023-06-14T12:46:49;95069.50;;;30.87
42119;BMP280;27783;42.782;23.274;2023-06-14T12:49:16;95072.88;;;30.62
42119;BMP280;27783;42.782;23.274;2023-06-14T12:51:42;95070.00;;;29.70
42119;BMP280;27783;42.782;23.274;2023-06-14T12:54:07;95051.34;;;32.35
42119;BMP280;27783;42.782;23.274;2023-06-14T12:56:33;95060.84;;;30.09
42119;BMP280;27783;42.782;23.274;2023-06-14T12:58:58;95060.25;;;29.62
42119;BMP280;27783;42.782;23.274;2023-06-14T13:01:24;95049.75;;;29.71
42119;BMP280;27783;42.782;23.274;2023-06-14T13:03:50;95049.09;;;29.24
42119;BMP280;27783;42.782;23.274;2023-06-14T13:06:17;95049.44;;;30.11
42119;BMP280;27783;42.782;23.274;2023-06-14T13:08:42;95048.06;;;30.22
42119;BMP280;27783;42.782;23.274;2023-06-14T13:11:08;95049.03;;;31.49
42119;BMP280;27783;42.782;23.274;2023-06-14T13:13:34;95045.66;;;30.01
42119;BMP280;27783;42.782;23.274;2023-06-14T13:16:00;95058.19;;;29.50
42119;BMP280;27783;42.782;23.274;2023-06-14T13:18:25;95055.19;;;28.55
42119;BMP280;27783;42.782;23.274;2023-06-14T13:20:52;95045.72;;;30.26
42119;BMP280;27783;42.782;23.274;2023-06-14T13:23:17;95048.34;;;29.65
42119;BMP280;27783;42.782;23.274;2023-06-14T13:25:43;95054.41;;;28.88
42119;BMP280;27783;42.782;23.274;2023-06-14T13:28:09;95064.94;;;27.66
42119;BMP280;27783;42.782;23.274;2023-06-14T13:30:34;95057.00;;;29.22
42119;BMP280;27783;42.782;23.274;2023-06-14T13:33:00;95064.66;;;29.00
42119;BMP280;27783;42.782;23.274;2023-06-14T13:35:27;95074.53;;;26.74
42119;BMP280;27783;42.782;23.274;2023-06-14T13:37:52;95078.00;;;27.62
42119;BMP280;27783;42.782;23.274;2023-06-14T13:40:18;95090.00;;;26.15
42119;BMP280;27783;42.782;23.274;2023-06-14T13:42:46;95092.44;;;26.93
42119;BMP280;27783;42.782;23.274;2023-06-14T13:45:12;95102.06;;;26.78
42119;BMP280;27783;42.782;23.274;2023-06-14T13:47:38;95095.19;;;26.19
42119;BMP280;27783;42.782;23.274;2023-06-14T13:50:04;95099.06;;;25.86
42119;BMP280;27783;42.782;23.274;2023-06-14T13:52:30;95095.94;;;24.59
42119;BMP280;27783;42.782;23.274;2023-06-14T13:54:56;95104.19;;;23.96
42119;BMP280;27783;42.782;23.274;2023-06-14T13:57:26;95098.75;;;23.90
42119;BMP280;27783;42.782;23.274;2023-06-14T13:59:52;95097.44;;;23.61
42119;BMP280;27783;42.782;23.274;2023-06-14T14:02:21;95107.28;;;23.25
42119;BMP280;27783;42.782;23.274;2023-06-14T14:04:46;95117.66;;;22.99
42119;BMP280;27783;42.782;23.274;2023-06-14T14:07:22;95140.13;;;22.82